createdAt,value
2023-06-07T00:01:28.391Z,23.02
2023-06-07T00:03:41.573Z,23.04
2023-06-07T00:05:54.713Z,23.06
2023-06-07T00:08:07.808Z,22.92
2023-06-07T00:10:20.710Z,22.86
2023-06-07T00:12:34.178Z,23.00
2023-06-07T00:14:49.507Z,22.91
2023-06-07T00:17:02.486Z,23.05
2023-06-07T00:19:15.560Z,22.97
2023-06-07T00:21:29.555Z,22.97
2023-06-07T00:23:42.354Z,22.82
2023-06-07T00:25:55.581Z,23.01
2023-06-07T00:28:08.684Z,22.95
2023-06-07T00:30:23.163Z,23.01
2023-06-07T00:32:35.765Z,22.68
2023-06-07T00:34:50.532Z,22.79
2023-06-07T00:37:02.993Z,22.80
2023-06-07T00:39:15.614Z,22.68
2023-06-07T00:41:28.889Z,22.79
2023-06-07T00:43:41.896Z,22.88
2023-06-07T00:45:54.344Z,22.68
2023-06-07T00:48:07.995Z,22.81
2023-06-07T00:50:21.764Z,22.85
2023-06-07T00:52:34.662Z,23.02
2023-06-07T00:54:47.882Z,22.99
2023-06-07T00:57:00.748Z,23.02
2023-06-07T00:59:14.406Z,22.99
2023-06-07T01:01:29.694Z,23.04
2023-06-07T01:03:43.632Z,23.27
2023-06-07T01:05:57.146Z,23.38
2023-06-07T01:08:09.999Z,23.30
2023-06-07T01:10:23.557Z,23.44
2023-06-07T01:12:38.920Z,23.54
2023-06-07T01:14:52.791Z,23.51
2023-06-07T01:17:06.302Z,23.57
2023-06-07T01:19:25.349Z,23.55
2023-06-07T01:21:41.268Z,23.60
2023-06-07T01:23:54.191Z,23.28
2023-06-07T01:26:07.873Z,23.33
2023-06-07T01:28:21.416Z,23.48
2023-06-07T01:30:35.755Z,23.56
2023-06-07T01:32:50.470Z,23.62
2023-06-07T01:35:04.023Z,23.54
2023-06-07T01:37:17.156Z,23.56
2023-06-07T01:39:32.806Z,23.73
2023-06-07T01:41:46.611Z,23.67
2023-06-07T01:44:03.449Z,23.73
2023-06-07T01:46:17.043Z,23.69
2023-06-07T01:48:30.287Z,23.78
2023-06-07T01:50:42.894Z,23.67
2023-06-07T01:52:55.835Z,23.73
2023-06-07T01:55:09.926Z,23.65
2023-06-07T01:57:31.079Z,23.86
2023-06-07T01:59:58.191Z,23.74
2023-06-07T02:02:17.754Z,23.79
2023-06-07T02:04:35.286Z,23.67
2023-06-07T02:06:53.002Z,23.98
2023-06-07T02:09:11.349Z,23.80
2023-06-07T02:11:28.098Z,23.93
2023-06-07T02:13:46.372Z,23.99
2023-06-07T02:15:59.281Z,24.21
2023-06-07T02:18:13.905Z,24.26
2023-06-07T02:20:29.385Z,24.20
2023-06-07T02:22:41.993Z,24.07
2023-06-07T02:24:54.771Z,24.04
2023-06-07T02:27:08.615Z,24.24
2023-06-07T02:29:21.314Z,24.52
2023-06-07T02:31:34.714Z,24.53
2023-06-07T02:33:48.002Z,24.66
2023-06-07T02:36:01.237Z,24.53
2023-06-07T02:38:13.987Z,24.61
2023-06-07T02:40:26.880Z,24.59
2023-06-07T02:42:40.011Z,24.70
2023-06-07T02:44:53.324Z,24.85
2023-06-07T02:47:05.920Z,24.77
2023-06-07T02:49:18.841Z,24.82
2023-06-07T02:51:31.985Z,24.63
2023-06-07T02:53:44.628Z,24.77
2023-06-07T02:55:57.670Z,24.86
2023-06-07T02:58:10.590Z,25.04
2023-06-07T03:00:26.539Z,25.05
2023-06-07T03:02:44.287Z,25.12
2023-06-07T03:04:58.106Z,25.19
2023-06-07T03:07:13.200Z,25.05
2023-06-07T03:09:27.550Z,25.33
2023-06-07T03:11:40.273Z,25.34
2023-06-07T03:13:53.680Z,25.50
2023-06-07T03:16:10.684Z,25.48
2023-06-07T03:18:33.470Z,25.75
2023-06-07T03:20:47.884Z,25.63
2023-06-07T03:23:01.805Z,26.02
2023-06-07T03:25:15.163Z,26.12
2023-06-07T03:27:29.833Z,26.45
2023-06-07T03:29:45.862Z,26.56
2023-06-07T03:31:59.492Z,26.74
2023-06-07T03:34:12.556Z,26.94
2023-06-07T03:36:28.182Z,27.02
2023-06-07T03:38:41.201Z,27.12
2023-06-07T03:40:53.644Z,27.23
2023-06-07T03:43:06.497Z,27.45
2023-06-07T03:45:19.298Z,27.41
2023-06-07T03:47:32.662Z,27.60
2023-06-07T03:49:45.352Z,27.64
2023-06-07T03:51:58.289Z,27.65
2023-06-07T03:54:12.241Z,27.70
2023-06-07T03:56:25.141Z,27.92
2023-06-07T03:58:40.257Z,27.92
2023-06-07T04:00:57.718Z,27.94
2023-06-07T04:03:10.620Z,27.98
2023-06-07T04:05:26.780Z,27.99
2023-06-07T04:07:40.632Z,28.16
2023-06-07T04:09:54.492Z,28.21
2023-06-07T04:12:07.718Z,28.28
2023-06-07T04:14:20.240Z,28.43
2023-06-07T04:16:33.566Z,28.46
2023-06-07T04:18:47.267Z,28.60
2023-06-07T04:21:00.092Z,28.74
2023-06-07T04:23:12.683Z,28.86
2023-06-07T04:25:28.217Z,28.80
2023-06-07T04:27:42.425Z,28.92
2023-06-07T04:29:55.904Z,28.97
2023-06-07T04:32:09.155Z,28.98
2023-06-07T04:34:24.038Z,29.08
2023-06-07T04:36:41.564Z,29.27
2023-06-07T04:39:01.009Z,29.70
2023-06-07T04:41:16.270Z,29.57
2023-06-07T04:43:38.666Z,29.78
2023-06-07T04:45:58.076Z,29.85
2023-06-07T04:48:14.875Z,29.68
2023-06-07T04:50:28.341Z,29.62
2023-06-07T04:52:42.217Z,29.58
2023-06-07T04:54:56.123Z,29.55
2023-06-07T04:57:10.858Z,29.52
2023-06-07T04:59:25.196Z,29.54
2023-06-07T05:01:38.066Z,29.51
2023-06-07T05:03:53.053Z,29.68
2023-06-07T05:06:06.444Z,29.70
2023-06-07T05:08:19.273Z,29.60
2023-06-07T05:10:32.242Z,29.82
2023-06-07T05:12:46.774Z,29.71
2023-06-07T05:15:00.340Z,29.58
2023-06-07T05:17:21.422Z,29.79
2023-06-07T05:19:36.760Z,29.80
2023-06-07T05:21:49.461Z,29.80
2023-06-07T05:24:02.401Z,29.94
2023-06-07T05:26:15.144Z,29.91
2023-06-07T05:28:28.066Z,29.99
2023-06-07T05:30:41.598Z,30.23
2023-06-07T05:32:56.178Z,30.01
2023-06-07T05:35:10.707Z,30.04
2023-06-07T05:37:25.503Z,30.20
2023-06-07T05:39:40.177Z,30.30
2023-06-07T05:41:54.220Z,30.48
2023-06-07T05:44:07.193Z,30.71
2023-06-07T05:46:20.872Z,30.47
2023-06-07T05:48:34.209Z,30.82
2023-06-07T05:50:47.517Z,30.83
2023-06-07T05:53:01.234Z,31.33
2023-06-07T05:55:14.753Z,31.66
2023-06-07T05:57:27.373Z,31.74
2023-06-07T05:59:40.083Z,31.75
2023-06-07T06:01:54.584Z,31.88
2023-06-07T06:04:07.566Z,31.90
2023-06-07T06:06:23.637Z,32.12
2023-06-07T06:08:36.508Z,32.33
2023-06-07T06:10:50.252Z,32.47
2023-06-07T06:13:02.954Z,32.54
2023-06-07T06:15:16.940Z,32.74
2023-06-07T06:17:31.835Z,32.93
2023-06-07T06:19:44.563Z,33.12
2023-06-07T06:21:57.193Z,33.24
2023-06-07T06:24:10.547Z,33.36
2023-06-07T06:26:24.112Z,33.46
2023-06-07T06:28:37.131Z,33.57
2023-06-07T06:30:49.820Z,33.81
2023-06-07T06:33:04.543Z,33.96
2023-06-07T06:35:17.158Z,34.12
2023-06-07T06:37:29.959Z,34.39
2023-06-07T06:39:42.572Z,34.49
2023-06-07T06:41:55.601Z,34.52
2023-06-07T06:44:16.711Z,34.61
2023-06-07T06:46:29.398Z,34.82
2023-06-07T06:48:42.367Z,34.95
2023-06-07T06:50:54.805Z,35.05
2023-06-07T06:53:07.406Z,35.15
2023-06-07T06:55:20.057Z,35.31
2023-06-07T06:57:33.666Z,35.43
2023-06-07T06:59:48.363Z,35.58
2023-06-07T07:02:02.974Z,35.61
2023-06-07T07:04:15.663Z,35.72
2023-06-07T07:06:29.270Z,35.84
2023-06-07T07:08:41.759Z,35.96
2023-06-07T07:10:54.400Z,36.03
2023-06-07T07:13:07.608Z,36.07
2023-06-07T07:15:20.049Z,36.29
2023-06-07T07:17:33.494Z,36.37
2023-06-07T07:19:46.167Z,36.42
2023-06-07T07:21:58.700Z,36.46
2023-06-07T07:24:13.629Z,36.37
2023-06-07T07:26:26.628Z,36.50
2023-06-07T07:28:39.758Z,36.81
2023-06-07T07:30:52.976Z,36.83
2023-06-07T07:33:06.087Z,37.06
2023-06-07T07:35:20.975Z,37.09
2023-06-07T07:37:34.275Z,37.47
2023-06-07T07:39:49.678Z,37.36
2023-06-07T07:42:02.148Z,37.48
2023-06-07T07:44:15.078Z,37.76
2023-06-07T07:46:27.769Z,37.79
2023-06-07T07:48:40.502Z,37.94
2023-06-07T07:50:55.732Z,38.07
2023-06-07T07:53:08.515Z,38.28
2023-06-07T07:55:23.375Z,38.61
2023-06-07T07:57:35.962Z,38.72
2023-06-07T07:59:48.465Z,39.07
2023-06-07T08:02:01.260Z,39.08
2023-06-07T08:04:13.781Z,39.28
2023-06-07T08:06:29.734Z,39.54
2023-06-07T08:08:42.488Z,39.56
2023-06-07T08:10:55.342Z,39.91
2023-06-07T08:13:07.844Z,40.04
2023-06-07T08:15:21.087Z,40.24
2023-06-07T08:17:34.074Z,40.42
2023-06-07T08:19:46.650Z,40.57
2023-06-07T08:22:00.087Z,40.54
2023-06-07T08:24:13.776Z,40.65
2023-06-07T08:26:26.693Z,40.87
2023-06-07T08:28:39.644Z,41.06
2023-06-07T08:30:52.309Z,41.08
2023-06-07T08:33:05.092Z,41.24
2023-06-07T08:35:17.913Z,41.46
2023-06-07T08:37:30.521Z,41.63
2023-06-07T08:39:43.492Z,41.80
2023-06-07T08:41:56.355Z,41.95
2023-06-07T08:44:12.828Z,42.17
2023-06-07T08:46:27.511Z,42.38
2023-06-07T08:48:41.804Z,42.50
2023-06-07T08:50:57.588Z,42.55
2023-06-07T08:53:16.962Z,42.69
2023-06-07T08:55:29.868Z,42.82
2023-06-07T08:57:42.675Z,42.99
2023-06-07T08:59:55.466Z,43.14
2023-06-07T09:02:10.213Z,43.41
2023-06-07T09:04:22.802Z,43.61
2023-06-07T09:06:36.629Z,43.83
2023-06-07T09:08:49.860Z,43.92
2023-06-07T09:11:02.611Z,44.11
2023-06-07T09:13:16.367Z,44.19
2023-06-07T09:15:29.760Z,44.27
2023-06-07T09:18:01.314Z,44.44
2023-06-07T09:20:25.675Z,44.61
2023-06-07T09:22:39.768Z,44.67
2023-06-07T09:24:52.617Z,44.81
2023-06-07T09:27:06.805Z,44.93
2023-06-07T09:29:21.613Z,45.16
2023-06-07T09:31:38.627Z,45.30
2023-06-07T09:33:51.481Z,45.46
2023-06-07T09:36:17.354Z,45.45
2023-06-07T09:38:35.377Z,45.73
2023-06-07T09:41:02.960Z,46.04
2023-06-07T09:43:16.487Z,46.22
2023-06-07T09:45:30.375Z,46.31
2023-06-07T09:47:43.817Z,46.36
2023-06-07T09:50:09.263Z,46.44
2023-06-07T09:52:22.027Z,46.59
2023-06-07T09:54:44.281Z,46.74
2023-06-07T09:56:59.049Z,46.76
2023-06-07T09:59:16.604Z,46.85
2023-06-07T10:02:09.355Z,46.91
2023-06-07T10:04:34.236Z,47.08
2023-06-07T10:06:50.024Z,47.19
2023-06-07T10:09:07.820Z,47.34
2023-06-07T10:11:33.116Z,47.61
2023-06-07T10:13:57.107Z,47.74
2023-06-07T10:16:33.135Z,48.27
2023-06-07T10:18:47.373Z,48.60
2023-06-07T10:21:22.911Z,48.84
2023-06-07T10:23:54.988Z,48.92
2023-06-07T10:26:24.070Z,49.07
2023-06-07T10:28:54.974Z,49.18
2023-06-07T10:31:22.491Z,49.49
2023-06-07T10:33:36.215Z,49.73
2023-06-07T10:36:10.153Z,49.94
2023-06-07T10:38:23.396Z,50.15
2023-06-07T10:40:47.392Z,50.34
2023-06-07T10:43:11.411Z,50.68
2023-06-07T10:45:37.038Z,50.79
2023-06-07T10:47:51.582Z,50.96
2023-06-07T10:50:04.860Z,51.04
2023-06-07T10:52:38.929Z,51.20
2023-06-07T10:54:55.465Z,51.34
2023-06-07T10:57:13.181Z,51.23
2023-06-07T10:59:37.297Z,50.93
2023-06-07T11:01:51.410Z,50.70
2023-06-07T11:04:08.965Z,50.63
2023-06-07T11:06:22.007Z,50.58
2023-06-07T11:08:39.086Z,50.55
2023-06-07T11:11:00.764Z,50.51
2023-06-07T11:13:53.628Z,50.41
2023-06-07T11:16:42.961Z,50.22
2023-06-07T11:19:11.357Z,50.42
2023-06-07T11:21:30.414Z,50.59
2023-06-07T11:24:18.117Z,50.88
2023-06-07T11:26:43.811Z,51.14
2023-06-07T11:29:07.858Z,51.31
2023-06-07T11:31:24.167Z,51.47
2023-06-07T11:33:47.316Z,51.78
2023-06-07T11:36:06.186Z,51.70
2023-06-07T11:38:22.707Z,51.47
2023-06-07T11:40:56.183Z,51.13
2023-06-07T11:43:14.222Z,50.94
2023-06-07T11:45:27.538Z,50.82
2023-06-07T11:47:40.429Z,50.80
2023-06-07T11:50:02.650Z,50.86
2023-06-07T11:52:27.787Z,50.81
2023-06-07T11:54:53.130Z,50.93
2023-06-07T11:57:08.403Z,50.84
2023-06-07T11:59:24.034Z,50.85
2023-06-07T12:02:00.481Z,50.87
2023-06-07T12:04:13.821Z,50.77
2023-06-07T12:06:28.868Z,50.68
2023-06-07T12:09:01.936Z,50.84
2023-06-07T12:11:15.317Z,50.78
2023-06-07T12:13:33.572Z,50.61
2023-06-07T12:15:59.911Z,50.65
2023-06-07T12:18:27.640Z,50.54
2023-06-07T12:20:43.793Z,50.60
2023-06-07T12:22:56.908Z,50.69
2023-06-07T12:25:24.992Z,50.80
2023-06-07T12:27:51.543Z,50.78
2023-06-07T12:30:15.399Z,50.78
2023-06-07T12:32:31.869Z,50.75
2023-06-07T12:35:08.558Z,50.80
2023-06-07T12:37:24.577Z,50.76
2023-06-07T12:39:47.329Z,50.84
2023-06-07T12:42:06.786Z,50.87
2023-06-07T12:44:19.690Z,50.90
2023-06-07T12:46:53.075Z,50.80
2023-06-07T12:49:06.342Z,50.98
2023-06-07T12:51:18.911Z,50.90
2023-06-07T12:53:52.083Z,50.90
2023-06-07T12:56:16.377Z,50.86
2023-06-07T12:58:49.289Z,50.98
2023-06-07T13:01:02.501Z,51.10
2023-06-07T13:03:15.641Z,51.28
2023-06-07T13:05:28.529Z,51.25
2023-06-07T13:07:44.516Z,51.36
2023-06-07T13:10:08.635Z,51.56
2023-06-07T13:12:22.641Z,51.43
2023-06-07T13:14:55.364Z,51.31
2023-06-07T13:17:11.918Z,51.34
2023-06-07T13:19:24.894Z,51.28
2023-06-07T13:21:38.918Z,51.39
2023-06-07T13:23:55.302Z,51.49
2023-06-07T13:26:11.304Z,51.66
2023-06-07T13:28:34.120Z,51.75
2023-06-07T13:30:50.378Z,51.93
2023-06-07T13:33:06.456Z,51.92
2023-06-07T13:35:33.658Z,51.87
2023-06-07T13:37:48.972Z,51.55
2023-06-07T13:40:01.971Z,51.45
2023-06-07T13:42:26.406Z,51.56
2023-06-07T13:44:43.256Z,51.58
2023-06-07T13:47:06.151Z,51.62
2023-06-07T13:49:23.828Z,51.87
2023-06-07T13:51:57.355Z,51.87
2023-06-07T13:54:29.967Z,52.15
2023-06-07T13:57:03.353Z,52.25
2023-06-07T13:59:19.567Z,52.23
2023-06-07T14:01:35.925Z,52.07
2023-06-07T14:04:02.701Z,52.05
2023-06-07T14:06:29.163Z,52.13
2023-06-07T14:09:02.267Z,52.01
2023-06-07T14:11:16.585Z,52.03
2023-06-07T14:13:39.669Z,52.10
2023-06-07T14:16:12.500Z,52.11
2023-06-07T14:18:29.282Z,52.14
2023-06-07T14:20:45.324Z,52.03
2023-06-07T14:22:58.305Z,51.92
2023-06-07T14:25:16.824Z,51.87
2023-06-07T14:27:48.683Z,51.87
2023-06-07T14:30:01.553Z,51.72
2023-06-07T14:32:16.363Z,51.77
2023-06-07T14:34:28.898Z,51.76
2023-06-07T14:36:52.914Z,51.69
2023-06-07T14:39:05.904Z,51.76
2023-06-07T14:41:21.513Z,51.73
2023-06-07T14:43:55.845Z,51.84
2023-06-07T14:46:12.016Z,51.84
2023-06-07T14:48:28.337Z,51.86
2023-06-07T14:50:44.712Z,52.00
2023-06-07T14:52:58.674Z,52.15
2023-06-07T14:55:12.703Z,52.27
2023-06-07T14:57:26.088Z,52.33
2023-06-07T14:59:39.766Z,52.47
2023-06-07T15:01:54.020Z,52.48
2023-06-07T15:04:10.744Z,52.47
2023-06-07T15:06:40.106Z,52.64
2023-06-07T15:09:04.348Z,52.49
2023-06-07T15:11:29.169Z,52.71
2023-06-07T15:14:02.598Z,52.81
2023-06-07T15:16:15.726Z,52.94
2023-06-07T15:18:29.195Z,52.93
2023-06-07T15:21:02.472Z,53.01
2023-06-07T15:23:16.056Z,53.10
2023-06-07T15:25:49.410Z,53.14
2023-06-07T15:28:12.689Z,53.20
2023-06-07T15:30:46.132Z,53.22
2023-06-07T15:33:12.903Z,53.25
2023-06-07T15:35:29.399Z,53.28
2023-06-07T15:37:52.109Z,53.36
2023-06-07T15:40:16.997Z,53.34
2023-06-07T15:42:50.252Z,53.37
2023-06-07T15:45:23.740Z,53.52
2023-06-07T15:47:59.744Z,53.52
2023-06-07T15:50:33.512Z,53.60
2023-06-07T15:52:56.590Z,53.60
2023-06-07T15:55:14.779Z,53.51
2023-06-07T15:57:31.083Z,53.48
2023-06-07T16:00:04.608Z,53.36
2023-06-07T16:02:38.229Z,53.28
2023-06-07T16:05:00.958Z,53.13
2023-06-07T16:07:13.836Z,53.31
2023-06-07T16:09:29.183Z,53.14
2023-06-07T16:12:03.600Z,53.05
2023-06-07T16:14:36.550Z,52.87
2023-06-07T16:16:53.085Z,52.51
2023-06-07T16:19:15.879Z,52.57
2023-06-07T16:21:28.712Z,52.43
2023-06-07T16:23:41.592Z,52.64
2023-06-07T16:25:56.343Z,52.51
2023-06-07T16:28:09.314Z,52.38
2023-06-07T16:30:22.674Z,52.33
2023-06-07T16:32:56.910Z,52.31
2023-06-07T16:35:20.536Z,51.95
2023-06-07T16:37:42.791Z,52.16
2023-06-07T16:39:55.666Z,52.06
2023-06-07T16:42:08.717Z,52.11
2023-06-07T16:44:23.176Z,52.02
2023-06-07T16:46:39.174Z,51.70
2023-06-07T16:49:12.233Z,51.12
2023-06-07T16:51:24.942Z,50.89
2023-06-07T16:53:47.818Z,50.47
2023-06-07T16:56:01.112Z,50.44
2023-06-07T16:58:14.686Z,50.30
2023-06-07T17:00:28.749Z,50.06
2023-06-07T17:02:47.256Z,49.86
2023-06-07T17:05:22.572Z,49.71
2023-06-07T17:07:58.844Z,49.75
2023-06-07T17:10:13.030Z,49.85
2023-06-07T17:12:25.739Z,49.56
2023-06-07T17:14:58.931Z,49.28
2023-06-07T17:17:11.830Z,48.98
2023-06-07T17:19:24.604Z,48.92
2023-06-07T17:21:57.440Z,48.65
2023-06-07T17:24:30.341Z,48.39
2023-06-07T17:26:43.220Z,48.59
2023-06-07T17:28:59.429Z,48.69
2023-06-07T17:31:12.155Z,48.24
2023-06-07T17:33:41.682Z,47.86
2023-06-07T17:36:14.983Z,47.59
2023-06-07T17:38:27.942Z,47.49
2023-06-07T17:40:40.768Z,47.27
2023-06-07T17:42:53.632Z,47.14
2023-06-07T17:45:10.649Z,47.17
2023-06-07T17:47:25.523Z,46.81
2023-06-07T17:49:38.646Z,46.66
2023-06-07T17:51:58.419Z,46.38
2023-06-07T17:54:24.365Z,46.11
2023-06-07T17:56:57.120Z,46.04
2023-06-07T17:59:10.023Z,45.85
2023-06-07T18:01:25.002Z,45.98
2023-06-07T18:03:39.284Z,46.06
2023-06-07T18:06:04.077Z,45.98
2023-06-07T18:08:28.354Z,45.96
2023-06-07T18:10:41.163Z,45.99
2023-06-07T18:12:53.809Z,45.89
2023-06-07T18:15:13.023Z,45.50
2023-06-07T18:17:29.861Z,45.61
2023-06-07T18:19:43.762Z,45.62
2023-06-07T18:21:59.092Z,45.43
2023-06-07T18:24:12.655Z,45.12
2023-06-07T18:26:34.386Z,44.30
2023-06-07T18:28:46.972Z,44.07
2023-06-07T18:31:03.377Z,44.17
2023-06-07T18:33:38.114Z,43.79
2023-06-07T18:36:01.570Z,43.61
2023-06-07T18:38:17.623Z,43.43
2023-06-07T18:40:31.033Z,43.55
2023-06-07T18:42:43.724Z,43.69
2023-06-07T18:44:56.765Z,43.59
2023-06-07T18:47:19.731Z,43.31
2023-06-07T18:49:43.184Z,43.16
2023-06-07T18:51:59.458Z,43.16
2023-06-07T18:54:11.948Z,43.01
2023-06-07T18:56:29.021Z,42.99
2023-06-07T18:58:41.821Z,42.75
2023-06-07T19:00:59.602Z,42.72
2023-06-07T19:03:21.846Z,42.64
2023-06-07T19:05:34.787Z,42.69
2023-06-07T19:08:08.396Z,42.54
2023-06-07T19:10:41.255Z,42.31
2023-06-07T19:12:54.431Z,42.12
2023-06-07T19:15:27.714Z,42.19
2023-06-07T19:17:40.817Z,42.04
2023-06-07T19:19:54.015Z,41.94
2023-06-07T19:22:09.344Z,41.87
2023-06-07T19:24:22.254Z,41.91
2023-06-07T19:26:35.169Z,41.60
2023-06-07T19:29:00.022Z,41.07
2023-06-07T19:31:13.036Z,41.08
2023-06-07T19:33:28.515Z,40.92
2023-06-07T19:35:43.419Z,40.83
2023-06-07T19:38:16.538Z,40.76
2023-06-07T19:40:49.461Z,40.18
2023-06-07T19:43:04.002Z,40.24
2023-06-07T19:45:20.518Z,40.21
2023-06-07T19:47:33.562Z,39.99
2023-06-07T19:49:56.829Z,39.87
2023-06-07T19:52:16.340Z,39.73
2023-06-07T19:54:40.722Z,39.88
2023-06-07T19:56:56.775Z,40.04
2023-06-07T19:59:10.325Z,40.03
2023-06-07T20:01:23.270Z,39.95
2023-06-07T20:03:43.448Z,39.89
2023-06-07T20:06:16.246Z,39.26
2023-06-07T20:08:39.562Z,39.01
2023-06-07T20:10:55.832Z,38.70
2023-06-07T20:13:15.258Z,38.84
2023-06-07T20:15:34.200Z,38.64
2023-06-07T20:17:50.250Z,38.45
2023-06-07T20:20:07.095Z,38.39
2023-06-07T20:22:20.680Z,38.43
2023-06-07T20:24:36.466Z,38.57
2023-06-07T20:26:49.619Z,38.46
2023-06-07T20:29:03.724Z,38.15
2023-06-07T20:31:16.399Z,37.85
2023-06-07T20:33:39.861Z,37.92
2023-06-07T20:36:03.541Z,38.14
2023-06-07T20:38:29.402Z,38.46
2023-06-07T20:40:45.683Z,38.11
2023-06-07T20:42:59.049Z,38.02
2023-06-07T20:45:16.937Z,37.82
2023-06-07T20:47:45.013Z,37.96
2023-06-07T20:50:18.300Z,38.07
2023-06-07T20:52:51.297Z,38.16
2023-06-07T20:55:14.565Z,38.05
2023-06-07T20:57:28.033Z,38.04
2023-06-07T20:59:47.105Z,37.95
2023-06-07T21:02:02.940Z,38.00
2023-06-07T21:04:24.873Z,37.72
2023-06-07T21:06:40.832Z,37.53
2023-06-07T21:08:57.055Z,37.34
2023-06-07T21:11:10.991Z,37.15
2023-06-07T21:13:23.646Z,37.34
2023-06-07T21:15:36.558Z,37.56
2023-06-07T21:17:49.382Z,37.15
2023-06-07T21:20:02.558Z,37.07
2023-06-07T21:22:15.340Z,37.07
2023-06-07T21:24:28.044Z,36.98
2023-06-07T21:27:01.005Z,36.58
2023-06-07T21:29:17.155Z,36.82
2023-06-07T21:31:49.940Z,36.89
2023-06-07T21:34:06.642Z,36.78
2023-06-07T21:36:40.824Z,36.59
2023-06-07T21:39:14.206Z,36.63
2023-06-07T21:41:38.205Z,36.28
2023-06-07T21:44:00.654Z,36.61
2023-06-07T21:46:13.676Z,36.72
2023-06-07T21:48:38.156Z,36.76
2023-06-07T21:50:54.465Z,36.70
2023-06-07T21:53:11.082Z,36.79
2023-06-07T21:55:44.048Z,36.94
2023-06-07T21:58:00.324Z,36.81
2023-06-07T22:00:18.673Z,36.83
2023-06-07T22:02:51.426Z,36.70
2023-06-07T22:05:04.212Z,36.37
2023-06-07T22:07:17.109Z,36.50
2023-06-07T22:09:30.141Z,36.68
2023-06-07T22:12:05.374Z,36.45
2023-06-07T22:14:18.905Z,36.24
2023-06-07T22:16:36.243Z,35.85
2023-06-07T22:19:01.854Z,36.10
2023-06-07T22:21:15.279Z,36.26
2023-06-07T22:23:48.477Z,36.26
2023-06-07T22:26:21.617Z,36.30
2023-06-07T22:28:34.796Z,35.98
2023-06-07T22:30:57.751Z,36.28
2023-06-07T22:33:11.720Z,36.01
2023-06-07T22:35:25.689Z,35.87
2023-06-07T22:37:51.223Z,35.86
2023-06-07T22:40:17.230Z,35.85
2023-06-07T22:42:40.995Z,35.54
2023-06-07T22:45:05.189Z,35.39
2023-06-07T22:47:20.242Z,35.31
2023-06-07T22:49:45.075Z,35.33
2023-06-07T22:52:08.438Z,35.28
2023-06-07T22:54:21.254Z,35.36
2023-06-07T22:56:54.006Z,35.39
2023-06-07T22:59:10.336Z,35.43
2023-06-07T23:01:33.836Z,35.31
2023-06-07T23:03:51.144Z,35.22
2023-06-07T23:06:09.418Z,35.29
2023-06-07T23:08:23.232Z,34.98
2023-06-07T23:10:45.470Z,35.03
2023-06-07T23:13:17.452Z,34.51
2023-06-07T23:15:34.487Z,34.19
2023-06-07T23:17:51.529Z,33.99
2023-06-07T23:20:13.146Z,33.76
2023-06-07T23:22:36.224Z,33.96
2023-06-07T23:25:09.547Z,34.02
2023-06-07T23:27:22.538Z,34.22
2023-06-07T23:29:38.497Z,34.00
2023-06-07T23:32:12.505Z,33.70
2023-06-07T23:34:26.164Z,33.87
2023-06-07T23:36:39.905Z,34.03
2023-06-07T23:38:53.182Z,34.01
2023-06-07T23:41:06.361Z,33.98
2023-06-07T23:43:39.507Z,33.89
2023-06-07T23:46:02.045Z,34.02
2023-06-07T23:48:35.038Z,34.38
2023-06-07T23:50:52.163Z,34.29
2023-06-07T23:53:06.093Z,33.98
2023-06-07T23:55:30.758Z,34.63
2023-06-07T23:57:43.799Z,34.84
